sensor_id;sensor_type;location;lat;lon;timestamp;temperature;humidity
72468;SHT30;60626;43.582;1.470;2023-02-01T00:01:16;12.32;59.48
72468;SHT30;60626;43.582;1.470;2023-02-01T00:03:43;12.35;59.43
72468;SHT30;60626;43.582;1.470;2023-02-01T00:06:09;12.35;59.46
72468;SHT30;60626;43.582;1.470;2023-02-01T00:08:36;12.35;59.33
72468;SHT30;60626;43.582;1.470;2023-02-01T00:13:31;12.36;59.32
72468;SHT30;60626;43.582;1.470;2023-02-01T00:16:05;12.36;59.32
72468;SHT30;60626;43.582;1.470;2023-02-01T00:18:32;12.38;58.92
72468;SHT30;60626;43.582;1.470;2023-02-01T00:20:59;12.36;58.99
72468;SHT30;60626;43.582;1.470;2023-02-01T00:23:26;12.34;59.32
72468;SHT30;60626;43.582;1.470;2023-02-01T00:25:52;12.31;59.16
72468;SHT30;60626;43.582;1.470;2023-02-01T00:28:19;12.29;59.31
72468;SHT30;60626;43.582;1.470;2023-02-01T00:30:46;12.26;59.39
72468;SHT30;60626;43.582;1.470;2023-02-01T00:33:12;12.26;59.04
72468;SHT30;60626;43.582;1.470;2023-02-01T00:35:39;12.25;59.10
72468;SHT30;60626;43.582;1.470;2023-02-01T00:38:06;12.24;59.09
72468;SHT30;60626;43.582;1.470;2023-02-01T00:40:32;12.24;59.10
72468;SHT30;60626;43.582;1.470;2023-02-01T00:42:59;12.21;59.14
72468;SHT30;60626;43.582;1.470;2023-02-01T00:45:26;12.21;59.07
72468;SHT30;60626;43.582;1.470;2023-02-01T00:47:52;12.22;59.12
72468;SHT30;60626;43.582;1.470;2023-02-01T00:50:19;12.24;58.92
72468;SHT30;60626;43.582;1.470;2023-02-01T00:52:46;12.21;58.90
72468;SHT30;60626;43.582;1.470;2023-02-01T00:55:13;12.20;58.86
72468;SHT30;60626;43.582;1.470;2023-02-01T00:57:39;12.22;58.81
72468;SHT30;60626;43.582;1.470;2023-02-01T01:00:06;12.18;58.77
72468;SHT30;60626;43.582;1.470;2023-02-01T01:02:33;12.20;58.78
72468;SHT30;60626;43.582;1.470;2023-02-01T01:05:00;12.20;58.65
72468;SHT30;60626;43.582;1.470;2023-02-01T01:07:27;12.21;58.46
72468;SHT30;60626;43.582;1.470;2023-02-01T01:09:54;12.18;58.65
72468;SHT30;60626;43.582;1.470;2023-02-01T01:12:21;12.20;58.68
72468;SHT30;60626;43.582;1.470;2023-02-01T01:14:48;12.15;58.43
72468;SHT30;60626;43.582;1.470;2023-02-01T01:17:16;12.15;58.58
72468;SHT30;60626;43.582;1.470;2023-02-01T01:19:42;12.14;58.66
72468;SHT30;60626;43.582;1.470;2023-02-01T01:22:09;12.14;58.51
72468;SHT30;60626;43.582;1.470;2023-02-01T01:24:36;12.11;58.60
72468;SHT30;60626;43.582;1.470;2023-02-01T01:27:02;12.13;58.40
72468;SHT30;60626;43.582;1.470;2023-02-01T01:29:29;12.13;58.27
72468;SHT30;60626;43.582;1.470;2023-02-01T01:31:55;12.08;58.35
72468;SHT30;60626;43.582;1.470;2023-02-01T01:34:22;12.08;58.36
72468;SHT30;60626;43.582;1.470;2023-02-01T01:36:49;12.08;58.22
72468;SHT30;60626;43.582;1.470;2023-02-01T01:39:15;12.05;58.49
72468;SHT30;60626;43.582;1.470;2023-02-01T01:41:42;12.04;58.33
72468;SHT30;60626;43.582;1.470;2023-02-01T01:47:14;12.02;58.45
72468;SHT30;60626;43.582;1.470;2023-02-01T01:49:42;12.02;58.45
72468;SHT30;60626;43.582;1.470;2023-02-01T01:52:09;12.01;58.63
72468;SHT30;60626;43.582;1.470;2023-02-01T01:54:42;12.02;58.45
72468;SHT30;60626;43.582;1.470;2023-02-01T01:57:14;12.04;58.63
72468;SHT30;60626;43.582;1.470;2023-02-01T01:59:47;12.02;58.34
72468;SHT30;60626;43.582;1.470;2023-02-01T02:02:15;12.02;58.25
72468;SHT30;60626;43.582;1.470;2023-02-01T02:04:42;12.01;58.28
72468;SHT30;60626;43.582;1.470;2023-02-01T02:07:18;12.01;58.34
72468;SHT30;60626;43.582;1.470;2023-02-01T02:09:46;12.02;57.90
72468;SHT30;60626;43.582;1.470;2023-02-01T02:12:26;11.98;57.99
72468;SHT30;60626;43.582;1.470;2023-02-01T02:14:52;11.95;58.05
72468;SHT30;60626;43.582;1.470;2023-02-01T02:17:44;11.94;58.12
72468;SHT30;60626;43.582;1.470;2023-02-01T02:26:26;11.93;58.43
72468;SHT30;60626;43.582;1.470;2023-02-01T02:34:57;11.88;58.07
72468;SHT30;60626;43.582;1.470;2023-02-01T02:37:38;11.86;58.14
72468;SHT30;60626;43.582;1.470;2023-02-01T02:40:10;11.84;58.19
72468;SHT30;60626;43.582;1.470;2023-02-01T02:45:49;11.84;58.08
72468;SHT30;60626;43.582;1.470;2023-02-01T02:51:34;11.77;58.41
72468;SHT30;60626;43.582;1.470;2023-02-01T02:54:27;11.77;58.40
72468;SHT30;60626;43.582;1.470;2023-02-01T03:00:14;11.83;58.43
72468;SHT30;60626;43.582;1.470;2023-02-01T03:03:00;11.84;58.52
72468;SHT30;60626;43.582;1.470;2023-02-01T03:05:47;11.83;58.49
72468;SHT30;60626;43.582;1.470;2023-02-01T03:08:19;11.81;58.44
72468;SHT30;60626;43.582;1.470;2023-02-01T03:13:47;11.84;58.50
72468;SHT30;60626;43.582;1.470;2023-02-01T03:19:08;11.87;58.56
72468;SHT30;60626;43.582;1.470;2023-02-01T03:24:19;11.88;58.50
72468;SHT30;60626;43.582;1.470;2023-02-01T03:26:55;11.87;58.52
72468;SHT30;60626;43.582;1.470;2023-02-01T03:29:27;11.87;58.24
72468;SHT30;60626;43.582;1.470;2023-02-01T03:31:55;11.86;58.49
72468;SHT30;60626;43.582;1.470;2023-02-01T03:34:22;11.84;58.59
72468;SHT30;60626;43.582;1.470;2023-02-01T03:36:58;11.83;58.67
72468;SHT30;60626;43.582;1.470;2023-02-01T03:39:58;11.86;58.61
72468;SHT30;60626;43.582;1.470;2023-02-01T03:42:32;11.86;58.75
72468;SHT30;60626;43.582;1.470;2023-02-01T03:45:04;11.84;58.63
72468;SHT30;60626;43.582;1.470;2023-02-01T03:47:37;11.87;58.57
72468;SHT30;60626;43.582;1.470;2023-02-01T03:50:08;11.86;58.67
72468;SHT30;60626;43.582;1.470;2023-02-01T03:55:11;11.86;58.93
72468;SHT30;60626;43.582;1.470;2023-02-01T03:57:44;11.87;58.77
72468;SHT30;60626;43.582;1.470;2023-02-01T04:02:43;11.87;58.63
72468;SHT30;60626;43.582;1.470;2023-02-01T04:05:10;11.87;58.64
72468;SHT30;60626;43.582;1.470;2023-02-01T04:07:37;11.91;58.63
72468;SHT30;60626;43.582;1.470;2023-02-01T04:10:05;11.94;58.58
72468;SHT30;60626;43.582;1.470;2023-02-01T04:12:31;11.93;58.55
72468;SHT30;60626;43.582;1.470;2023-02-01T04:14:58;11.93;58.57
72468;SHT30;60626;43.582;1.470;2023-02-01T04:17:24;11.93;58.57
72468;SHT30;60626;43.582;1.470;2023-02-01T04:19:51;11.93;58.50
72468;SHT30;60626;43.582;1.470;2023-02-01T04:22:20;11.93;58.37
72468;SHT30;60626;43.582;1.470;2023-02-01T04:24:47;11.90;58.43
72468;SHT30;60626;43.582;1.470;2023-02-01T04:27:14;11.95;58.39
72468;SHT30;60626;43.582;1.470;2023-02-01T04:29:40;11.93;58.46
72468;SHT30;60626;43.582;1.470;2023-02-01T04:32:07;11.93;58.50
72468;SHT30;60626;43.582;1.470;2023-02-01T04:34:34;11.90;58.64
72468;SHT30;60626;43.582;1.470;2023-02-01T04:37:00;11.88;58.83
72468;SHT30;60626;43.582;1.470;2023-02-01T04:39:27;11.90;58.87
72468;SHT30;60626;43.582;1.470;2023-02-01T04:41:54;11.93;58.76
72468;SHT30;60626;43.582;1.470;2023-02-01T04:44:21;11.91;58.66
72468;SHT30;60626;43.582;1.470;2023-02-01T04:46:47;11.91;58.79
72468;SHT30;60626;43.582;1.470;2023-02-01T04:49:15;11.91;58.89
72468;SHT30;60626;43.582;1.470;2023-02-01T04:51:42;11.88;58.59
72468;SHT30;60626;43.582;1.470;2023-02-01T04:54:09;11.86;58.47
72468;SHT30;60626;43.582;1.470;2023-02-01T04:56:37;11.87;58.73
72468;SHT30;60626;43.582;1.470;2023-02-01T04:59:04;11.87;58.96
72468;SHT30;60626;43.582;1.470;2023-02-01T05:01:31;11.84;58.86
72468;SHT30;60626;43.582;1.470;2023-02-01T05:03:58;11.87;58.98
72468;SHT30;60626;43.582;1.470;2023-02-01T05:06:24;11.86;59.02
72468;SHT30;60626;43.582;1.470;2023-02-01T05:08:51;11.87;59.09
72468;SHT30;60626;43.582;1.470;2023-02-01T05:11:18;11.86;59.12
72468;SHT30;60626;43.582;1.470;2023-02-01T05:14:03;11.90;59.05
72468;SHT30;60626;43.582;1.470;2023-02-01T05:16:30;11.88;59.16
72468;SHT30;60626;43.582;1.470;2023-02-01T05:18:56;11.91;59.10
72468;SHT30;60626;43.582;1.470;2023-02-01T05:21:23;11.91;59.15
72468;SHT30;60626;43.582;1.470;2023-02-01T05:23:50;11.93;59.01
72468;SHT30;60626;43.582;1.470;2023-02-01T05:26:36;11.88;59.17
72468;SHT30;60626;43.582;1.470;2023-02-01T05:29:04;11.90;59.27
72468;SHT30;60626;43.582;1.470;2023-02-01T05:31:31;11.94;59.34
72468;SHT30;60626;43.582;1.470;2023-02-01T05:33:58;11.93;59.26
72468;SHT30;60626;43.582;1.470;2023-02-01T05:36:25;11.97;59.04
72468;SHT30;60626;43.582;1.470;2023-02-01T05:38:51;11.97;59.06
72468;SHT30;60626;43.582;1.470;2023-02-01T05:41:18;11.97;59.23
72468;SHT30;60626;43.582;1.470;2023-02-01T05:43:44;11.99;59.33
72468;SHT30;60626;43.582;1.470;2023-02-01T05:46:11;11.99;59.26
72468;SHT30;60626;43.582;1.470;2023-02-01T05:48:40;11.98;59.19
72468;SHT30;60626;43.582;1.470;2023-02-01T05:51:07;11.98;59.10
72468;SHT30;60626;43.582;1.470;2023-02-01T05:53:34;11.98;58.92
72468;SHT30;60626;43.582;1.470;2023-02-01T05:56:01;11.98;58.97
72468;SHT30;60626;43.582;1.470;2023-02-01T05:58:29;11.94;59.22
72468;SHT30;60626;43.582;1.470;2023-02-01T06:00:55;11.97;59.08
72468;SHT30;60626;43.582;1.470;2023-02-01T06:03:21;11.94;59.32
72468;SHT30;60626;43.582;1.470;2023-02-01T06:05:48;11.93;59.22
72468;SHT30;60626;43.582;1.470;2023-02-01T06:08:14;11.93;59.11
72468;SHT30;60626;43.582;1.470;2023-02-01T06:10:41;11.88;59.33
72468;SHT30;60626;43.582;1.470;2023-02-01T06:13:08;11.90;59.31
72468;SHT30;60626;43.582;1.470;2023-02-01T06:15:34;11.88;59.36
72468;SHT30;60626;43.582;1.470;2023-02-01T06:18:01;11.88;59.40
72468;SHT30;60626;43.582;1.470;2023-02-01T06:20:28;11.91;59.31
72468;SHT30;60626;43.582;1.470;2023-02-01T06:22:55;11.90;59.52
72468;SHT30;60626;43.582;1.470;2023-02-01T06:25:21;11.91;59.46
72468;SHT30;60626;43.582;1.470;2023-02-01T06:27:48;11.90;59.43
72468;SHT30;60626;43.582;1.470;2023-02-01T06:30:15;11.93;59.53
72468;SHT30;60626;43.582;1.470;2023-02-01T06:32:42;11.88;59.40
72468;SHT30;60626;43.582;1.470;2023-02-01T06:35:09;11.87;59.25
72468;SHT30;60626;43.582;1.470;2023-02-01T06:37:42;11.86;59.33
72468;SHT30;60626;43.582;1.470;2023-02-01T06:40:10;11.86;59.69
72468;SHT30;60626;43.582;1.470;2023-02-01T06:42:37;11.84;59.41
72468;SHT30;60626;43.582;1.470;2023-02-01T06:45:04;11.83;59.21
72468;SHT30;60626;43.582;1.470;2023-02-01T06:47:32;11.83;59.56
72468;SHT30;60626;43.582;1.470;2023-02-01T06:49:59;11.83;59.35
72468;SHT30;60626;43.582;1.470;2023-02-01T06:52:26;11.83;59.13
72468;SHT30;60626;43.582;1.470;2023-02-01T06:54:52;11.81;59.70
72468;SHT30;60626;43.582;1.470;2023-02-01T06:57:19;11.81;59.84
72468;SHT30;60626;43.582;1.470;2023-02-01T06:59:46;11.81;60.15
72468;SHT30;60626;43.582;1.470;2023-02-01T07:02:12;11.84;60.32
72468;SHT30;60626;43.582;1.470;2023-02-01T07:04:39;11.90;60.59
72468;SHT30;60626;43.582;1.470;2023-02-01T07:07:06;11.94;60.60
72468;SHT30;60626;43.582;1.470;2023-02-01T07:09:32;11.98;60.67
72468;SHT30;60626;43.582;1.470;2023-02-01T07:11:59;12.01;59.95
72468;SHT30;60626;43.582;1.470;2023-02-01T07:14:25;12.04;61.09
72468;SHT30;60626;43.582;1.470;2023-02-01T07:16:52;12.05;61.01
72468;SHT30;60626;43.582;1.470;2023-02-01T07:19:19;12.08;61.07
72468;SHT30;60626;43.582;1.470;2023-02-01T07:21:45;12.13;61.50
72468;SHT30;60626;43.582;1.470;2023-02-01T07:24:12;12.14;61.57
72468;SHT30;60626;43.582;1.470;2023-02-01T07:26:38;12.18;61.76
72468;SHT30;60626;43.582;1.470;2023-02-01T07:29:05;12.17;61.85
72468;SHT30;60626;43.582;1.470;2023-02-01T07:31:32;12.21;61.65
72468;SHT30;60626;43.582;1.470;2023-02-01T07:33:58;12.20;61.92
72468;SHT30;60626;43.582;1.470;2023-02-01T07:36:25;12.22;61.95
72468;SHT30;60626;43.582;1.470;2023-02-01T07:38:52;12.21;61.84
72468;SHT30;60626;43.582;1.470;2023-02-01T07:41:22;12.22;61.72
72468;SHT30;60626;43.582;1.470;2023-02-01T07:43:48;12.25;61.77
72468;SHT30;60626;43.582;1.470;2023-02-01T07:46:17;12.28;61.79
72468;SHT30;60626;43.582;1.470;2023-02-01T07:48:43;12.31;60.38
72468;SHT30;60626;43.582;1.470;2023-02-01T07:51:12;12.26;61.65
72468;SHT30;60626;43.582;1.470;2023-02-01T07:53:40;12.24;62.03
72468;SHT30;60626;43.582;1.470;2023-02-01T07:56:15;12.25;61.90
72468;SHT30;60626;43.582;1.470;2023-02-01T07:58:42;12.24;61.76
72468;SHT30;60626;43.582;1.470;2023-02-01T08:01:22;12.22;62.19
72468;SHT30;60626;43.582;1.470;2023-02-01T08:04:02;12.22;62.16
72468;SHT30;60626;43.582;1.470;2023-02-01T08:06:31;12.21;62.24
72468;SHT30;60626;43.582;1.470;2023-02-01T08:08:58;12.24;61.78
72468;SHT30;60626;43.582;1.470;2023-02-01T08:11:25;12.22;62.27
72468;SHT30;60626;43.582;1.470;2023-02-01T08:13:52;12.24;62.26
72468;SHT30;60626;43.582;1.470;2023-02-01T08:16:20;12.26;62.25
72468;SHT30;60626;43.582;1.470;2023-02-01T08:18:47;12.26;62.20
72468;SHT30;60626;43.582;1.470;2023-02-01T08:21:19;12.28;62.39
72468;SHT30;60626;43.582;1.470;2023-02-01T08:23:46;12.32;61.55
72468;SHT30;60626;43.582;1.470;2023-02-01T08:26:24;12.31;60.85
72468;SHT30;60626;43.582;1.470;2023-02-01T08:28:54;12.32;62.09
72468;SHT30;60626;43.582;1.470;2023-02-01T08:31:22;12.34;61.01
72468;SHT30;60626;43.582;1.470;2023-02-01T08:33:53;12.34;61.44
72468;SHT30;60626;43.582;1.470;2023-02-01T08:36:21;12.36;60.79
72468;SHT30;60626;43.582;1.470;2023-02-01T08:38:48;12.34;61.38
72468;SHT30;60626;43.582;1.470;2023-02-01T08:41:17;12.36;61.90
72468;SHT30;60626;43.582;1.470;2023-02-01T08:43:44;12.36;61.92
72468;SHT30;60626;43.582;1.470;2023-02-01T08:46:12;12.39;61.88
72468;SHT30;60626;43.582;1.470;2023-02-01T08:48:39;12.36;60.83
72468;SHT30;60626;43.582;1.470;2023-02-01T08:51:11;12.32;60.88
72468;SHT30;60626;43.582;1.470;2023-02-01T08:53:39;12.26;61.14
72468;SHT30;60626;43.582;1.470;2023-02-01T08:56:09;12.28;61.90
72468;SHT30;60626;43.582;1.470;2023-02-01T08:58:36;12.31;61.66
72468;SHT30;60626;43.582;1.470;2023-02-01T09:01:04;12.39;61.04
72468;SHT30;60626;43.582;1.470;2023-02-01T09:03:31;12.36;61.26
72468;SHT30;60626;43.582;1.470;2023-02-01T09:06:07;12.38;61.07
72468;SHT30;60626;43.582;1.470;2023-02-01T09:08:35;12.45;60.46
72468;SHT30;60626;43.582;1.470;2023-02-01T09:11:05;12.42;60.17
72468;SHT30;60626;43.582;1.470;2023-02-01T09:13:32;12.32;60.21
72468;SHT30;60626;43.582;1.470;2023-02-01T09:16:00;12.28;60.23
72468;SHT30;60626;43.582;1.470;2023-02-01T09:18:27;12.11;60.13
72468;SHT30;60626;43.582;1.470;2023-02-01T09:20:53;12.08;60.25
72468;SHT30;60626;43.582;1.470;2023-02-01T09:23:20;12.04;60.20
72468;SHT30;60626;43.582;1.470;2023-02-01T09:25:46;11.98;60.24
72468;SHT30;60626;43.582;1.470;2023-02-01T09:28:17;11.95;60.44
72468;SHT30;60626;43.582;1.470;2023-02-01T09:30:44;11.91;60.29
72468;SHT30;60626;43.582;1.470;2023-02-01T09:33:11;11.93;60.28
72468;SHT30;60626;43.582;1.470;2023-02-01T09:35:37;11.99;60.19
72468;SHT30;60626;43.582;1.470;2023-02-01T09:38:04;11.97;60.26
72468;SHT30;60626;43.582;1.470;2023-02-01T09:40:33;12.05;60.23
72468;SHT30;60626;43.582;1.470;2023-02-01T09:48:27;12.11;60.14
72468;SHT30;60626;43.582;1.470;2023-02-01T09:50:58;12.10;59.99
72468;SHT30;60626;43.582;1.470;2023-02-01T09:53:37;12.11;59.51
72468;SHT30;60626;43.582;1.470;2023-02-01T09:56:24;12.25;59.18
72468;SHT30;60626;43.582;1.470;2023-02-01T09:59:04;12.41;57.80
72468;SHT30;60626;43.582;1.470;2023-02-01T10:01:32;12.83;58.09
72468;SHT30;60626;43.582;1.470;2023-02-01T10:04:13;13.34;57.14
72468;SHT30;60626;43.582;1.470;2023-02-01T10:12:57;13.48;55.65
72468;SHT30;60626;43.582;1.470;2023-02-01T10:15:46;13.37;53.93
72468;SHT30;60626;43.582;1.470;2023-02-01T10:21:21;13.25;54.47
72468;SHT30;60626;43.582;1.470;2023-02-01T10:26:53;13.24;54.34
72468;SHT30;60626;43.582;1.470;2023-02-01T10:29:25;13.28;54.34
72468;SHT30;60626;43.582;1.470;2023-02-01T10:31:54;13.35;55.47
72468;SHT30;60626;43.582;1.470;2023-02-01T10:34:26;13.37;54.11
72468;SHT30;60626;43.582;1.470;2023-02-01T10:36:56;13.41;54.83
72468;SHT30;60626;43.582;1.470;2023-02-01T10:39:26;13.34;54.34
72468;SHT30;60626;43.582;1.470;2023-02-01T10:41:55;13.35;54.51
72468;SHT30;60626;43.582;1.470;2023-02-01T10:44:26;13.37;53.90
72468;SHT30;60626;43.582;1.470;2023-02-01T10:46:54;13.48;53.76
72468;SHT30;60626;43.582;1.470;2023-02-01T10:49:33;13.54;53.46
72468;SHT30;60626;43.582;1.470;2023-02-01T10:52:14;13.63;53.55
72468;SHT30;60626;43.582;1.470;2023-02-01T10:54:41;13.72;52.86
72468;SHT30;60626;43.582;1.470;2023-02-01T10:57:22;13.77;52.93
72468;SHT30;60626;43.582;1.470;2023-02-01T10:59:50;13.87;52.78
72468;SHT30;60626;43.582;1.470;2023-02-01T11:02:26;14.09;53.07
72468;SHT30;60626;43.582;1.470;2023-02-01T11:05:05;14.31;52.35
72468;SHT30;60626;43.582;1.470;2023-02-01T11:07:36;14.49;51.71
72468;SHT30;60626;43.582;1.470;2023-02-01T11:10:04;14.58;52.37
72468;SHT30;60626;43.582;1.470;2023-02-01T11:12:33;14.49;51.44
72468;SHT30;60626;43.582;1.470;2023-02-01T11:17:46;14.38;51.83
72468;SHT30;60626;43.582;1.470;2023-02-01T11:20:19;14.41;51.72
72468;SHT30;60626;43.582;1.470;2023-02-01T11:22:54;14.42;51.69
72468;SHT30;60626;43.582;1.470;2023-02-01T11:25:21;14.49;51.70
72468;SHT30;60626;43.582;1.470;2023-02-01T11:27:50;14.71;51.79
72468;SHT30;60626;43.582;1.470;2023-02-01T11:30:39;14.80;51.33
72468;SHT30;60626;43.582;1.470;2023-02-01T11:33:13;14.80;51.53
72468;SHT30;60626;43.582;1.470;2023-02-01T11:35:41;14.72;50.73
72468;SHT30;60626;43.582;1.470;2023-02-01T11:38:20;14.61;51.22
72468;SHT30;60626;43.582;1.470;2023-02-01T11:40:47;14.49;51.57
72468;SHT30;60626;43.582;1.470;2023-02-01T11:43:26;14.41;51.72
72468;SHT30;60626;43.582;1.470;2023-02-01T11:46:01;14.31;52.08
72468;SHT30;60626;43.582;1.470;2023-02-01T11:48:33;14.25;52.33
72468;SHT30;60626;43.582;1.470;2023-02-01T11:56:11;14.18;53.33
72468;SHT30;60626;43.582;1.470;2023-02-01T12:02:01;14.25;53.19
72468;SHT30;60626;43.582;1.470;2023-02-01T12:13:23;14.16;53.75
72468;SHT30;60626;43.582;1.470;2023-02-01T12:21:50;14.00;53.80
72468;SHT30;60626;43.582;1.470;2023-02-01T12:32:50;14.07;54.13
72468;SHT30;60626;43.582;1.470;2023-02-01T12:36:02;14.20;54.14
72468;SHT30;60626;43.582;1.470;2023-02-01T12:38:46;14.30;53.77
72468;SHT30;60626;43.582;1.470;2023-02-01T12:41:50;14.31;53.73
72468;SHT30;60626;43.582;1.470;2023-02-01T12:50:06;14.32;52.98
72468;SHT30;60626;43.582;1.470;2023-02-01T12:52:48;14.31;53.22
72468;SHT30;60626;43.582;1.470;2023-02-01T12:55:34;14.28;53.53
72468;SHT30;60626;43.582;1.470;2023-02-01T12:58:05;14.22;53.44
72468;SHT30;60626;43.582;1.470;2023-02-01T13:00:40;14.18;53.57
72468;SHT30;60626;43.582;1.470;2023-02-01T13:03:26;14.18;53.61
72468;SHT30;60626;43.582;1.470;2023-02-01T13:08:54;14.11;52.73
72468;SHT30;60626;43.582;1.470;2023-02-01T13:11:38;14.10;53.11
72468;SHT30;60626;43.582;1.470;2023-02-01T13:17:22;14.07;51.67
72468;SHT30;60626;43.582;1.470;2023-02-01T13:19:59;14.04;51.81
72468;SHT30;60626;43.582;1.470;2023-02-01T13:22:37;14.01;52.85
72468;SHT30;60626;43.582;1.470;2023-02-01T13:25:14;13.96;51.28
72468;SHT30;60626;43.582;1.470;2023-02-01T13:27:43;13.94;51.00
72468;SHT30;60626;43.582;1.470;2023-02-01T13:30:22;13.96;50.45
72468;SHT30;60626;43.582;1.470;2023-02-01T13:33:13;13.99;51.95
72468;SHT30;60626;43.582;1.470;2023-02-01T13:36:30;13.94;52.11
72468;SHT30;60626;43.582;1.470;2023-02-01T13:42:23;13.83;50.78
72468;SHT30;60626;43.582;1.470;2023-02-01T13:45:05;13.83;50.41
72468;SHT30;60626;43.582;1.470;2023-02-01T13:47:42;13.84;51.07
72468;SHT30;60626;43.582;1.470;2023-02-01T13:50:34;13.84;50.21
72468;SHT30;60626;43.582;1.470;2023-02-01T13:55:46;13.84;50.30
72468;SHT30;60626;43.582;1.470;2023-02-01T14:00:43;13.82;50.63
72468;SHT30;60626;43.582;1.470;2023-02-01T14:03:21;13.79;50.86
72468;SHT30;60626;43.582;1.470;2023-02-01T14:08:36;13.76;51.24
72468;SHT30;60626;43.582;1.470;2023-02-01T14:11:03;13.69;50.81
72468;SHT30;60626;43.582;1.470;2023-02-01T14:13:36;13.65;50.93
72468;SHT30;60626;43.582;1.470;2023-02-01T14:21:32;13.55;50.88
72468;SHT30;60626;43.582;1.470;2023-02-01T14:26:47;13.55;51.09
72468;SHT30;60626;43.582;1.470;2023-02-01T14:48:41;13.58;51.40
72468;SHT30;60626;43.582;1.470;2023-02-01T14:50:47;13.58;51.57
72468;SHT30;60626;43.582;1.470;2023-02-01T14:53:19;13.59;51.41
72468;SHT30;60626;43.582;1.470;2023-02-01T14:56:06;13.61;51.40
72468;SHT30;60626;43.582;1.470;2023-02-01T14:58:56;13.63;51.60
72468;SHT30;60626;43.582;1.470;2023-02-01T15:01:28;13.65;51.46
72468;SHT30;60626;43.582;1.470;2023-02-01T15:04:10;13.63;51.44
72468;SHT30;60626;43.582;1.470;2023-02-01T15:12:04;13.66;51.00
72468;SHT30;60626;43.582;1.470;2023-02-01T15:15:03;13.66;50.63
72468;SHT30;60626;43.582;1.470;2023-02-01T15:17:32;13.69;50.62
72468;SHT30;60626;43.582;1.470;2023-02-01T15:20:17;13.72;50.69
72468;SHT30;60626;43.582;1.470;2023-02-01T15:23:05;13.70;50.51
72468;SHT30;60626;43.582;1.470;2023-02-01T15:25:35;13.66;50.68
72468;SHT30;60626;43.582;1.470;2023-02-01T15:28:04;13.66;50.45
72468;SHT30;60626;43.582;1.470;2023-02-01T15:30:34;13.66;50.72
72468;SHT30;60626;43.582;1.470;2023-02-01T15:35:45;13.65;51.09
72468;SHT30;60626;43.582;1.470;2023-02-01T15:40:55;13.59;50.25
72468;SHT30;60626;43.582;1.470;2023-02-01T15:43:24;13.51;51.05
72468;SHT30;60626;43.582;1.470;2023-02-01T15:45:51;13.49;49.88
72468;SHT30;60626;43.582;1.470;2023-02-01T15:48:23;13.48;50.30
72468;SHT30;60626;43.582;1.470;2023-02-01T15:50:54;13.48;50.34
72468;SHT30;60626;43.582;1.470;2023-02-01T15:53:24;13.48;50.10
72468;SHT30;60626;43.582;1.470;2023-02-01T15:55:54;13.49;50.70
72468;SHT30;60626;43.582;1.470;2023-02-01T15:58:23;13.52;50.95
72468;SHT30;60626;43.582;1.470;2023-02-01T16:00:52;13.51;50.38
72468;SHT30;60626;43.582;1.470;2023-02-01T16:05:57;13.49;51.32
72468;SHT30;60626;43.582;1.470;2023-02-01T16:08:27;13.48;50.78
72468;SHT30;60626;43.582;1.470;2023-02-01T16:13:35;13.42;50.46
72468;SHT30;60626;43.582;1.470;2023-02-01T16:16:02;13.44;50.62
72468;SHT30;60626;43.582;1.470;2023-02-01T16:18:30;13.46;50.42
72468;SHT30;60626;43.582;1.470;2023-02-01T16:20:57;13.48;50.51
72468;SHT30;60626;43.582;1.470;2023-02-01T16:23:23;13.41;50.68
72468;SHT30;60626;43.582;1.470;2023-02-01T16:25:50;13.41;50.52
72468;SHT30;60626;43.582;1.470;2023-02-01T16:28:16;13.39;50.27
72468;SHT30;60626;43.582;1.470;2023-02-01T16:30:43;13.39;50.84
72468;SHT30;60626;43.582;1.470;2023-02-01T16:33:16;13.34;50.91
72468;SHT30;60626;43.582;1.470;2023-02-01T16:35:45;13.31;50.94
72468;SHT30;60626;43.582;1.470;2023-02-01T16:38:15;13.32;50.52
72468;SHT30;60626;43.582;1.470;2023-02-01T16:40:45;13.34;50.27
72468;SHT30;60626;43.582;1.470;2023-02-01T16:43:17;13.37;50.58
72468;SHT30;60626;43.582;1.470;2023-02-01T16:45:44;13.37;50.53
72468;SHT30;60626;43.582;1.470;2023-02-01T16:48:30;13.37;50.43
72468;SHT30;60626;43.582;1.470;2023-02-01T16:50:59;13.35;50.04
72468;SHT30;60626;43.582;1.470;2023-02-01T16:53:29;13.35;50.52
72468;SHT30;60626;43.582;1.470;2023-02-01T16:55:58;13.32;50.16
72468;SHT30;60626;43.582;1.470;2023-02-01T16:58:26;13.32;50.19
72468;SHT30;60626;43.582;1.470;2023-02-01T17:00:53;13.34;50.24
72468;SHT30;60626;43.582;1.470;2023-02-01T17:03:21;13.34;50.05
72468;SHT30;60626;43.582;1.470;2023-02-01T17:05:51;13.31;50.63
72468;SHT30;60626;43.582;1.470;2023-02-01T17:08:28;13.31;50.36
72468;SHT30;60626;43.582;1.470;2023-02-01T17:10:55;13.28;50.96
72468;SHT30;60626;43.582;1.470;2023-02-01T17:13:22;13.25;49.85
72468;SHT30;60626;43.582;1.470;2023-02-01T17:15:58;13.22;49.75
72468;SHT30;60626;43.582;1.470;2023-02-01T17:18:28;13.21;49.78
72468;SHT30;60626;43.582;1.470;2023-02-01T17:21:00;13.21;49.55
72468;SHT30;60626;43.582;1.470;2023-02-01T17:23:29;13.19;49.62
72468;SHT30;60626;43.582;1.470;2023-02-01T17:25:56;13.15;49.65
72468;SHT30;60626;43.582;1.470;2023-02-01T17:28:23;13.10;49.76
72468;SHT30;60626;43.582;1.470;2023-02-01T17:30:50;13.10;49.85
72468;SHT30;60626;43.582;1.470;2023-02-01T17:33:29;13.07;50.07
72468;SHT30;60626;43.582;1.470;2023-02-01T17:36:03;13.06;49.81
72468;SHT30;60626;43.582;1.470;2023-02-01T17:38:32;13.06;49.94
72468;SHT30;60626;43.582;1.470;2023-02-01T17:41:00;13.01;49.92
72468;SHT30;60626;43.582;1.470;2023-02-01T17:43:26;12.97;49.94
72468;SHT30;60626;43.582;1.470;2023-02-01T17:46:03;12.90;50.16
72468;SHT30;60626;43.582;1.470;2023-02-01T17:48:30;12.91;50.19
72468;SHT30;60626;43.582;1.470;2023-02-01T17:50:57;12.91;50.30
72468;SHT30;60626;43.582;1.470;2023-02-01T17:53:28;12.89;50.32
72468;SHT30;60626;43.582;1.470;2023-02-01T17:55:55;12.86;50.30
72468;SHT30;60626;43.582;1.470;2023-02-01T17:58:24;12.83;50.13
72468;SHT30;60626;43.582;1.470;2023-02-01T18:00:52;12.79;50.03
72468;SHT30;60626;43.582;1.470;2023-02-01T18:03:25;12.76;50.20
72468;SHT30;60626;43.582;1.470;2023-02-01T18:05:54;12.72;50.08
72468;SHT30;60626;43.582;1.470;2023-02-01T18:08:26;12.70;50.11
72468;SHT30;60626;43.582;1.470;2023-02-01T18:10:56;12.67;50.35
72468;SHT30;60626;43.582;1.470;2023-02-01T18:13:29;12.64;50.36
72468;SHT30;60626;43.582;1.470;2023-02-01T18:15:57;12.62;50.56
72468;SHT30;60626;43.582;1.470;2023-02-01T18:18:27;12.57;50.92
72468;SHT30;60626;43.582;1.470;2023-02-01T18:20:56;12.52;51.02
72468;SHT30;60626;43.582;1.470;2023-02-01T18:23:23;12.46;51.19
72468;SHT30;60626;43.582;1.470;2023-02-01T18:25:50;12.42;51.25
72468;SHT30;60626;43.582;1.470;2023-02-01T18:28:18;12.38;51.14
72468;SHT30;60626;43.582;1.470;2023-02-01T18:30:47;12.34;51.28